Aérodrome :
LOGIN :

S'inscrire | Disclaimer

   EN    FR    IT 

 










Légende :    VFR   VFR Marginal   IFR   IFR Intensif   IFR Très Intensif
Visi : 
Plafond : 
>= 8 km
>= 3000ft
5 à 8 km
1000 à 3000 ft
1500m à 5 km
500 à 1000 ft
800 à 1500m
200 à 500 ft
< 800m
< 200 ft
Symboles :   Orages  Brouillard  Fortes neiges  Fortes précipitations  Vent > 20 kt
SIGMETs :   Divers  Orages  Givrage  Turbulence  Onde Orograph.  Cendres Volcan.







- Altitude de l'aérodrome : 203 ft
- Code IATA : XMJ
- Voir les cartes d'approche


LFBM - Mont-De-Marsan

DERNIER METAR :
  • 150500Z AUTO 09003KT 0800 R27/1100N FG VV/// 07/07 Q1021 BECMG 1500 BR NSC

METARs EXPIRÉS :
  • 150430Z AUTO 09003KT 0600 0500 R27/0550N FG VV/// 07/07 Q1021 BECMG 1500 BR NSC
  • 150400Z AUTO VRB02KT 0450 0400 R27/0500N FG VV/// 07/07 Q1021 BECMG 1500 BR NSC
  • 150330Z AUTO 09003KT 0400 0350 R27/0400N FG VV/// 07/07 Q1021 BECMG 1500 BR NSC
  • 150300Z AUTO 08004KT 0350 R27/0375N FG VV/// 07/07 Q1021 TEMPO 0600 FG
  • 150230Z AUTO 10002KT 0400 R27/0450N FG VV/// 08/08 Q1022 TEMPO 0600 FG

TAF TAF LFBM
Valide du 15 à 03h jusqu'au 16 à 03h UTC


150200Z 1503/1603 28005KT 1500 BR NSC
PROB40 1503/1505 0600 FG VV///
BECMG 1509/1511 5000 RA SCT008 BKN025 OVC040
BECMG 1514/1517 9999 NSW NSC
BECMG 1520/1522 4500 RA BKN010
Pas de NOTAMs connus pour ce terrain.



MET'MAP, la Météo Aéronautique d'un coup d'oeil ! - Copyright ORBIFLY Décembre 2007 - Disclaimer

ORBIFLY MET'MAP TEAM :

Programmation & Développement : Alexandra Zaïnal
Conception & Développement : Baudouin d'Aumeries
Co-Programmation & Développement : Marc-Olivier Méhu
Soutien technique & logistique : Manuel Goepfert

Contact : metmap@orbifly.com




SOURCES & CREDITS :

   NOAA